sensor_id;sensor_type;location;lat;lon;timestamp;P1;durP1;ratioP1;P2;durP2;ratioP2
60016;SDS011;45869;52.698;6.210;2023-04-01T00:00:21;4.13;;;2.70;;
60016;SDS011;45869;52.698;6.210;2023-04-01T00:02:47;4.63;;;2.85;;
60016;SDS011;45869;52.698;6.210;2023-04-01T00:05:13;4.05;;;2.50;;
60016;SDS011;45869;52.698;6.210;2023-04-01T00:07:41;3.67;;;2.40;;
60016;SDS011;45869;52.698;6.210;2023-04-01T00:10:08;5.07;;;2.97;;
60016;SDS011;45869;52.698;6.210;2023-04-01T00:12:34;4.45;;;2.60;;
60016;SDS011;45869;52.698;6.210;2023-04-01T00:15:01;5.05;;;2.80;;
60016;SDS011;45869;52.698;6.210;2023-04-01T00:17:27;3.55;;;2.47;;
60016;SDS011;45869;52.698;6.210;2023-04-01T00:19:56;4.28;;;2.40;;
60016;SDS011;45869;52.698;6.210;2023-04-01T00:22:23;4.15;;;2.53;;
60016;SDS011;45869;52.698;6.210;2023-04-01T00:24:53;4.75;;;3.05;;
60016;SDS011;45869;52.698;6.210;2023-04-01T00:27:19;3.25;;;2.42;;
60016;SDS011;45869;52.698;6.210;2023-04-01T00:29:48;3.30;;;2.47;;
60016;SDS011;45869;52.698;6.210;2023-04-01T00:32:14;4.30;;;2.85;;
60016;SDS011;45869;52.698;6.210;2023-04-01T00:34:40;4.15;;;2.47;;
60016;SDS011;45869;52.698;6.210;2023-04-01T00:37:07;4.80;;;3.05;;
60016;SDS011;45869;52.698;6.210;2023-04-01T00:39:34;3.78;;;2.33;;
60016;SDS011;45869;52.698;6.210;2023-04-01T00:42:00;4.80;;;2.97;;
60016;SDS011;45869;52.698;6.210;2023-04-01T00:44:28;4.03;;;2.80;;
60016;SDS011;45869;52.698;6.210;2023-04-01T00:46:55;4.57;;;2.88;;
60016;SDS011;45869;52.698;6.210;2023-04-01T00:49:29;5.85;;;2.80;;
60016;SDS011;45869;52.698;6.210;2023-04-01T00:51:57;4.93;;;3.22;;
60016;SDS011;45869;52.698;6.210;2023-04-01T00:54:25;4.53;;;2.78;;
60016;SDS011;45869;52.698;6.210;2023-04-01T00:57:02;4.53;;;2.70;;
60016;SDS011;45869;52.698;6.210;2023-04-01T00:59:30;5.65;;;3.00;;
60016;SDS011;45869;52.698;6.210;2023-04-01T01:01:57;5.20;;;3.40;;
60016;SDS011;45869;52.698;6.210;2023-04-01T01:04:25;3.42;;;2.30;;
60016;SDS011;45869;52.698;6.210;2023-04-01T01:09:37;4.75;;;3.30;;
60016;SDS011;45869;52.698;6.210;2023-04-01T01:14:39;3.70;;;2.50;;
60016;SDS011;45869;52.698;6.210;2023-04-01T01:20:07;3.13;;;2.22;;
60016;SDS011;45869;52.698;6.210;2023-04-01T01:22:57;5.05;;;3.45;;
60016;SDS011;45869;52.698;6.210;2023-04-01T01:28:20;4.85;;;3.38;;
60016;SDS011;45869;52.698;6.210;2023-04-01T01:33:44;4.85;;;2.75;;
60016;SDS011;45869;52.698;6.210;2023-04-01T01:36:12;5.40;;;3.72;;
60016;SDS011;45869;52.698;6.210;2023-04-01T01:38:41;6.97;;;4.00;;
60016;SDS011;45869;52.698;6.210;2023-04-01T01:41:08;5.25;;;3.10;;
60016;SDS011;45869;52.698;6.210;2023-04-01T01:43:42;5.45;;;3.67;;
60016;SDS011;45869;52.698;6.210;2023-04-01T01:46:13;5.25;;;3.60;;
60016;SDS011;45869;52.698;6.210;2023-04-01T01:48:41;4.82;;;3.20;;
60016;SDS011;45869;52.698;6.210;2023-04-01T01:51:08;5.32;;;3.90;;
60016;SDS011;45869;52.698;6.210;2023-04-01T01:53:37;4.78;;;3.38;;
60016;SDS011;45869;52.698;6.210;2023-04-01T01:56:04;3.50;;;2.83;;
60016;SDS011;45869;52.698;6.210;2023-04-01T01:58:33;3.92;;;2.80;;
60016;SDS011;45869;52.698;6.210;2023-04-01T02:01:06;4.78;;;3.55;;
60016;SDS011;45869;52.698;6.210;2023-04-01T02:03:34;3.97;;;3.42;;
60016;SDS011;45869;52.698;6.210;2023-04-01T02:06:03;4.95;;;4.00;;
60016;SDS011;45869;52.698;6.210;2023-04-01T02:08:46;5.35;;;3.60;;
60016;SDS011;45869;52.698;6.210;2023-04-01T02:11:13;6.18;;;4.60;;
60016;SDS011;45869;52.698;6.210;2023-04-01T02:13:43;4.50;;;3.75;;
60016;SDS011;45869;52.698;6.210;2023-04-01T02:16:26;6.00;;;4.38;;
60016;SDS011;45869;52.698;6.210;2023-04-01T02:18:54;5.03;;;3.25;;
60016;SDS011;45869;52.698;6.210;2023-04-01T02:21:21;4.28;;;3.42;;
60016;SDS011;45869;52.698;6.210;2023-04-01T02:23:52;4.93;;;3.20;;
60016;SDS011;45869;52.698;6.210;2023-04-01T02:26:18;4.75;;;3.50;;
60016;SDS011;45869;52.698;6.210;2023-04-01T02:28:47;5.10;;;4.07;;
60016;SDS011;45869;52.698;6.210;2023-04-01T02:31:14;4.50;;;3.00;;
60016;SDS011;45869;52.698;6.210;2023-04-01T02:33:40;4.50;;;3.55;;
60016;SDS011;45869;52.698;6.210;2023-04-01T02:36:12;4.32;;;3.53;;
60016;SDS011;45869;52.698;6.210;2023-04-01T02:38:38;5.50;;;4.47;;
60016;SDS011;45869;52.698;6.210;2023-04-01T02:41:05;3.85;;;2.72;;
60016;SDS011;45869;52.698;6.210;2023-04-01T02:43:32;4.43;;;3.05;;
60016;SDS011;45869;52.698;6.210;2023-04-01T02:45:58;4.70;;;3.90;;
60016;SDS011;45869;52.698;6.210;2023-04-01T02:48:24;4.80;;;3.83;;
60016;SDS011;45869;52.698;6.210;2023-04-01T02:50:50;5.55;;;3.30;;
60016;SDS011;45869;52.698;6.210;2023-04-01T02:53:19;5.47;;;4.13;;
60016;SDS011;45869;52.698;6.210;2023-04-01T02:55:45;4.38;;;3.15;;
60016;SDS011;45869;52.698;6.210;2023-04-01T02:58:11;5.28;;;4.00;;
60016;SDS011;45869;52.698;6.210;2023-04-01T03:00:37;4.55;;;3.75;;
60016;SDS011;45869;52.698;6.210;2023-04-01T03:03:06;4.47;;;3.60;;
60016;SDS011;45869;52.698;6.210;2023-04-01T03:05:32;4.78;;;3.60;;
60016;SDS011;45869;52.698;6.210;2023-04-01T03:07:58;4.60;;;3.80;;
60016;SDS011;45869;52.698;6.210;2023-04-01T03:10:25;4.80;;;4.13;;
60016;SDS011;45869;52.698;6.210;2023-04-01T03:12:51;5.38;;;3.90;;
60016;SDS011;45869;52.698;6.210;2023-04-01T03:15:17;5.90;;;4.10;;
60016;SDS011;45869;52.698;6.210;2023-04-01T03:17:43;5.20;;;3.88;;
60016;SDS011;45869;52.698;6.210;2023-04-01T03:20:09;5.80;;;4.53;;
60016;SDS011;45869;52.698;6.210;2023-04-01T03:22:36;7.97;;;4.65;;
60016;SDS011;45869;52.698;6.210;2023-04-01T03:25:03;3.70;;;3.30;;
60016;SDS011;45869;52.698;6.210;2023-04-01T03:27:29;4.28;;;3.42;;
60016;SDS011;45869;52.698;6.210;2023-04-01T03:29:55;5.68;;;4.10;;
60016;SDS011;45869;52.698;6.210;2023-04-01T03:32:21;4.40;;;3.63;;
60016;SDS011;45869;52.698;6.210;2023-04-01T03:34:47;7.40;;;5.20;;
60016;SDS011;45869;52.698;6.210;2023-04-01T03:37:13;5.55;;;4.22;;
60016;SDS011;45869;52.698;6.210;2023-04-01T03:39:40;6.05;;;4.30;;
60016;SDS011;45869;52.698;6.210;2023-04-01T03:42:06;7.97;;;5.57;;
60016;SDS011;45869;52.698;6.210;2023-04-01T03:44:35;7.55;;;5.03;;
60016;SDS011;45869;52.698;6.210;2023-04-01T03:47:01;8.30;;;5.45;;
60016;SDS011;45869;52.698;6.210;2023-04-01T03:49:27;8.02;;;5.10;;
60016;SDS011;45869;52.698;6.210;2023-04-01T03:51:53;6.50;;;5.32;;
60016;SDS011;45869;52.698;6.210;2023-04-01T03:54:19;9.63;;;6.40;;
60016;SDS011;45869;52.698;6.210;2023-04-01T03:56:46;9.65;;;6.30;;
60016;SDS011;45869;52.698;6.210;2023-04-01T03:59:12;9.82;;;6.18;;
60016;SDS011;45869;52.698;6.210;2023-04-01T04:01:38;9.32;;;6.63;;
60016;SDS011;45869;52.698;6.210;2023-04-01T04:04:04;7.18;;;5.22;;
60016;SDS011;45869;52.698;6.210;2023-04-01T04:06:30;8.48;;;5.90;;
60016;SDS011;45869;52.698;6.210;2023-04-01T04:08:57;7.32;;;5.40;;
60016;SDS011;45869;52.698;6.210;2023-04-01T04:11:25;11.00;;;7.65;;
60016;SDS011;45869;52.698;6.210;2023-04-01T04:13:51;10.88;;;7.03;;
60016;SDS011;45869;52.698;6.210;2023-04-01T04:16:18;8.70;;;6.40;;
60016;SDS011;45869;52.698;6.210;2023-04-01T04:18:47;10.55;;;7.72;;
60016;SDS011;45869;52.698;6.210;2023-04-01T04:21:13;12.70;;;8.50;;
60016;SDS011;45869;52.698;6.210;2023-04-01T04:23:39;10.00;;;6.22;;
60016;SDS011;45869;52.698;6.210;2023-04-01T04:26:06;12.77;;;8.13;;
60016;SDS011;45869;52.698;6.210;2023-04-01T04:28:32;12.23;;;8.18;;
60016;SDS011;45869;52.698;6.210;2023-04-01T04:31:02;13.48;;;8.13;;
60016;SDS011;45869;52.698;6.210;2023-04-01T04:33:30;10.30;;;7.18;;
60016;SDS011;45869;52.698;6.210;2023-04-01T04:35:56;8.73;;;6.50;;
60016;SDS011;45869;52.698;6.210;2023-04-01T04:38:23;8.88;;;6.85;;
60016;SDS011;45869;52.698;6.210;2023-04-01T04:40:55;8.50;;;6.55;;
60016;SDS011;45869;52.698;6.210;2023-04-01T04:43:21;9.73;;;6.80;;
60016;SDS011;45869;52.698;6.210;2023-04-01T04:45:48;7.10;;;5.35;;
60016;SDS011;45869;52.698;6.210;2023-04-01T04:48:15;8.55;;;5.80;;
60016;SDS011;45869;52.698;6.210;2023-04-01T04:50:47;9.07;;;6.50;;
60016;SDS011;45869;52.698;6.210;2023-04-01T04:53:17;9.30;;;6.70;;
60016;SDS011;45869;52.698;6.210;2023-04-01T04:55:44;8.38;;;6.07;;
60016;SDS011;45869;52.698;6.210;2023-04-01T04:58:13;8.00;;;6.00;;
60016;SDS011;45869;52.698;6.210;2023-04-01T05:00:40;11.15;;;7.93;;
60016;SDS011;45869;52.698;6.210;2023-04-01T05:03:06;9.90;;;7.10;;
60016;SDS011;45869;52.698;6.210;2023-04-01T05:05:32;8.30;;;6.25;;
60016;SDS011;45869;52.698;6.210;2023-04-01T05:07:58;9.20;;;6.50;;
60016;SDS011;45869;52.698;6.210;2023-04-01T05:10:25;10.80;;;6.70;;
60016;SDS011;45869;52.698;6.210;2023-04-01T05:12:51;9.25;;;7.18;;
60016;SDS011;45869;52.698;6.210;2023-04-01T05:15:29;11.80;;;7.68;;
60016;SDS011;45869;52.698;6.210;2023-04-01T05:17:55;10.32;;;6.72;;
60016;SDS011;45869;52.698;6.210;2023-04-01T05:20:21;8.65;;;7.00;;
60016;SDS011;45869;52.698;6.210;2023-04-01T05:22:47;8.75;;;6.55;;
60016;SDS011;45869;52.698;6.210;2023-04-01T05:25:16;11.15;;;7.55;;
60016;SDS011;45869;52.698;6.210;2023-04-01T05:27:42;8.40;;;6.15;;
60016;SDS011;45869;52.698;6.210;2023-04-01T05:30:14;9.90;;;6.57;;
60016;SDS011;45869;52.698;6.210;2023-04-01T05:32:43;8.27;;;6.00;;
60016;SDS011;45869;52.698;6.210;2023-04-01T05:35:12;7.47;;;5.38;;
60016;SDS011;45869;52.698;6.210;2023-04-01T05:37:38;8.43;;;5.05;;
60016;SDS011;45869;52.698;6.210;2023-04-01T05:40:04;5.90;;;4.45;;
60016;SDS011;45869;52.698;6.210;2023-04-01T05:42:30;6.22;;;4.53;;
60016;SDS011;45869;52.698;6.210;2023-04-01T05:44:56;4.70;;;3.40;;
60016;SDS011;45869;52.698;6.210;2023-04-01T05:47:22;4.93;;;3.70;;
60016;SDS011;45869;52.698;6.210;2023-04-01T05:49:51;5.15;;;3.50;;
60016;SDS011;45869;52.698;6.210;2023-04-01T05:52:17;4.60;;;3.30;;
60016;SDS011;45869;52.698;6.210;2023-04-01T05:54:46;4.43;;;2.90;;
60016;SDS011;45869;52.698;6.210;2023-04-01T05:57:12;4.85;;;3.05;;
60016;SDS011;45869;52.698;6.210;2023-04-01T05:59:38;4.00;;;2.83;;
60016;SDS011;45869;52.698;6.210;2023-04-01T06:02:04;3.95;;;2.40;;
60016;SDS011;45869;52.698;6.210;2023-04-01T06:04:32;3.20;;;2.20;;
60016;SDS011;45869;52.698;6.210;2023-04-01T06:07:01;4.05;;;2.25;;
60016;SDS011;45869;52.698;6.210;2023-04-01T06:09:27;3.42;;;2.33;;
60016;SDS011;45869;52.698;6.210;2023-04-01T06:15:25;4.35;;;3.13;;
60016;SDS011;45869;52.698;6.210;2023-04-01T06:20:05;4.28;;;3.00;;
60016;SDS011;45869;52.698;6.210;2023-04-01T06:22:44;6.47;;;3.65;;
60016;SDS011;45869;52.698;6.210;2023-04-01T06:25:18;5.97;;;4.65;;
60016;SDS011;45869;52.698;6.210;2023-04-01T06:27:55;6.55;;;4.75;;
60016;SDS011;45869;52.698;6.210;2023-04-01T06:37:54;8.20;;;5.68;;
60016;SDS011;45869;52.698;6.210;2023-04-01T06:45:44;8.45;;;5.38;;
60016;SDS011;45869;52.698;6.210;2023-04-01T06:50:40;7.63;;;5.18;;
60016;SDS011;45869;52.698;6.210;2023-04-01T06:53:18;9.10;;;5.53;;
60016;SDS011;45869;52.698;6.210;2023-04-01T06:55:46;8.57;;;5.20;;
60016;SDS011;45869;52.698;6.210;2023-04-01T06:58:16;8.32;;;5.40;;
60016;SDS011;45869;52.698;6.210;2023-04-01T07:00:48;8.13;;;5.25;;
60016;SDS011;45869;52.698;6.210;2023-04-01T07:05:45;6.88;;;4.18;;
60016;SDS011;45869;52.698;6.210;2023-04-01T07:08:13;7.97;;;4.50;;
60016;SDS011;45869;52.698;6.210;2023-04-01T07:13:10;5.40;;;3.78;;
60016;SDS011;45869;52.698;6.210;2023-04-01T07:15:39;6.43;;;4.00;;
60016;SDS011;45869;52.698;6.210;2023-04-01T07:18:16;6.63;;;4.28;;
60016;SDS011;45869;52.698;6.210;2023-04-01T07:20:43;6.32;;;3.90;;
60016;SDS011;45869;52.698;6.210;2023-04-01T07:23:26;6.35;;;4.00;;
60016;SDS011;45869;52.698;6.210;2023-04-01T07:26:01;6.18;;;3.90;;
60016;SDS011;45869;52.698;6.210;2023-04-01T07:28:36;6.28;;;3.60;;
60016;SDS011;45869;52.698;6.210;2023-04-01T07:33:54;5.38;;;3.42;;
60016;SDS011;45869;52.698;6.210;2023-04-01T07:36:43;5.90;;;3.45;;
60016;SDS011;45869;52.698;6.210;2023-04-01T07:47:23;5.15;;;2.88;;
60016;SDS011;45869;52.698;6.210;2023-04-01T07:55:20;6.63;;;3.60;;
60016;SDS011;45869;52.698;6.210;2023-04-01T08:01:00;6.72;;;4.72;;
60016;SDS011;45869;52.698;6.210;2023-04-01T08:06:03;6.20;;;4.50;;
60016;SDS011;45869;52.698;6.210;2023-04-01T08:08:57;6.32;;;4.20;;
60016;SDS011;45869;52.698;6.210;2023-04-01T08:19:28;4.20;;;2.90;;
60016;SDS011;45869;52.698;6.210;2023-04-01T08:21:57;3.50;;;2.60;;
60016;SDS011;45869;52.698;6.210;2023-04-01T08:24:29;4.05;;;2.60;;
60016;SDS011;45869;52.698;6.210;2023-04-01T08:26:59;4.07;;;2.40;;
60016;SDS011;45869;52.698;6.210;2023-04-01T08:29:44;3.40;;;2.28;;
60016;SDS011;45869;52.698;6.210;2023-04-01T08:32:12;3.10;;;1.83;;
60016;SDS011;45869;52.698;6.210;2023-04-01T08:34:42;2.40;;;1.65;;
60016;SDS011;45869;52.698;6.210;2023-04-01T08:37:14;2.38;;;1.63;;
60016;SDS011;45869;52.698;6.210;2023-04-01T08:58:36;3.20;;;2.00;;
60016;SDS011;45869;52.698;6.210;2023-04-01T09:06:24;4.05;;;2.70;;
60016;SDS011;45869;52.698;6.210;2023-04-01T09:11:52;4.80;;;3.25;;
60016;SDS011;45869;52.698;6.210;2023-04-01T09:14:40;5.50;;;4.38;;
60016;SDS011;45869;52.698;6.210;2023-04-01T09:19:46;4.72;;;3.53;;
60016;SDS011;45869;52.698;6.210;2023-04-01T09:38:29;3.17;;;1.90;;
60016;SDS011;45869;52.698;6.210;2023-04-01T09:46:20;2.42;;;1.33;;
60016;SDS011;45869;52.698;6.210;2023-04-01T10:10:21;3.90;;;1.70;;
60016;SDS011;45869;52.698;6.210;2023-04-01T10:23:27;4.40;;;3.40;;
60016;SDS011;45869;52.698;6.210;2023-04-01T10:37:15;5.93;;;4.05;;
60016;SDS011;45869;52.698;6.210;2023-04-01T10:42:27;6.30;;;4.70;;
60016;SDS011;45869;52.698;6.210;2023-04-01T11:00:35;6.93;;;5.25;;
60016;SDS011;45869;52.698;6.210;2023-04-01T11:08:32;7.32;;;5.32;;
60016;SDS011;45869;52.698;6.210;2023-04-01T11:24:44;8.05;;;6.13;;
60016;SDS011;45869;52.698;6.210;2023-04-01T11:30:00;8.65;;;6.20;;
60016;SDS011;45869;52.698;6.210;2023-04-01T11:37:43;8.07;;;6.30;;
60016;SDS011;45869;52.698;6.210;2023-04-01T11:43:38;6.03;;;4.95;;
60016;SDS011;45869;52.698;6.210;2023-04-01T11:45:48;6.43;;;4.00;;
60016;SDS011;45869;52.698;6.210;2023-04-01T11:50:53;4.40;;;3.20;;
60016;SDS011;45869;52.698;6.210;2023-04-01T11:53:23;5.65;;;3.50;;
60016;SDS011;45869;52.698;6.210;2023-04-01T11:56:02;4.50;;;3.43;;
60016;SDS011;45869;52.698;6.210;2023-04-01T12:01:19;3.92;;;3.40;;
60016;SDS011;45869;52.698;6.210;2023-04-01T12:03:54;5.50;;;3.97;;
60016;SDS011;45869;52.698;6.210;2023-04-01T12:14:30;5.07;;;4.25;;
60016;SDS011;45869;52.698;6.210;2023-04-01T12:24:46;5.32;;;3.97;;
60016;SDS011;45869;52.698;6.210;2023-04-01T12:35:22;5.07;;;3.42;;
60016;SDS011;45869;52.698;6.210;2023-04-01T12:51:34;4.53;;;2.78;;
60016;SDS011;45869;52.698;6.210;2023-04-01T12:56:44;3.10;;;2.53;;
60016;SDS011;45869;52.698;6.210;2023-04-01T13:02:26;3.63;;;2.60;;
60016;SDS011;45869;52.698;6.210;2023-04-01T13:10:36;2.92;;;2.60;;
60016;SDS011;45869;52.698;6.210;2023-04-01T13:19:12;3.20;;;2.53;;
60016;SDS011;45869;52.698;6.210;2023-04-01T13:26:37;3.00;;;2.60;;
60016;SDS011;45869;52.698;6.210;2023-04-01T13:29:14;3.60;;;2.95;;
60016;SDS011;45869;52.698;6.210;2023-04-01T13:34:17;4.30;;;3.70;;
60016;SDS011;45869;52.698;6.210;2023-04-01T13:36:49;5.15;;;4.00;;
60016;SDS011;45869;52.698;6.210;2023-04-01T13:42:16;4.57;;;3.75;;
60016;SDS011;45869;52.698;6.210;2023-04-01T13:47:34;4.47;;;3.85;;
60016;SDS011;45869;52.698;6.210;2023-04-01T14:03:37;3.70;;;2.90;;
60016;SDS011;45869;52.698;6.210;2023-04-01T14:13:48;3.63;;;2.20;;
60016;SDS011;45869;52.698;6.210;2023-04-01T14:19:03;2.70;;;2.20;;
60016;SDS011;45869;52.698;6.210;2023-04-01T14:21:38;9.48;;;2.60;;
60016;SDS011;45869;52.698;6.210;2023-04-01T14:27:40;3.10;;;2.63;;
60016;SDS011;45869;52.698;6.210;2023-04-01T14:50:45;2.30;;;2.08;;
60016;SDS011;45869;52.698;6.210;2023-04-01T14:53:16;3.10;;;2.03;;
60016;SDS011;45869;52.698;6.210;2023-04-01T14:55:51;2.88;;;2.20;;
60016;SDS011;45869;52.698;6.210;2023-04-01T14:58:21;3.20;;;2.20;;
60016;SDS011;45869;52.698;6.210;2023-04-01T15:11:42;2.17;;;1.63;;
60016;SDS011;45869;52.698;6.210;2023-04-01T15:24:48;1.85;;;1.50;;
60016;SDS011;45869;52.698;6.210;2023-04-01T15:40:22;2.65;;;1.35;;
60016;SDS011;45869;52.698;6.210;2023-04-01T15:42:55;2.33;;;1.67;;
60016;SDS011;45869;52.698;6.210;2023-04-01T16:00:53;1.90;;;1.60;;
60016;SDS011;45869;52.698;6.210;2023-04-01T16:08:41;2.50;;;1.98;;
60016;SDS011;45869;52.698;6.210;2023-04-01T16:11:25;2.33;;;1.90;;
60016;SDS011;45869;52.698;6.210;2023-04-01T16:14:03;2.90;;;2.25;;
60016;SDS011;45869;52.698;6.210;2023-04-01T16:22:38;2.70;;;1.95;;
60016;SDS011;45869;52.698;6.210;2023-04-01T16:27:45;2.00;;;1.70;;
60016;SDS011;45869;52.698;6.210;2023-04-01T16:32:45;2.25;;;1.92;;
60016;SDS011;45869;52.698;6.210;2023-04-01T16:35:35;2.15;;;1.90;;
60016;SDS011;45869;52.698;6.210;2023-04-01T16:43:11;2.97;;;1.90;;
60016;SDS011;45869;52.698;6.210;2023-04-01T16:48:13;2.40;;;1.92;;
60016;SDS011;45869;52.698;6.210;2023-04-01T16:58:27;1.92;;;1.65;;
60016;SDS011;45869;52.698;6.210;2023-04-01T17:01:00;2.10;;;1.58;;
60016;SDS011;45869;52.698;6.210;2023-04-01T17:03:42;2.17;;;1.60;;
60016;SDS011;45869;52.698;6.210;2023-04-01T17:06:21;2.22;;;1.98;;
60016;SDS011;45869;52.698;6.210;2023-04-01T17:08:54;2.45;;;2.08;;
60016;SDS011;45869;52.698;6.210;2023-04-01T17:11:31;3.95;;;2.17;;
60016;SDS011;45869;52.698;6.210;2023-04-01T17:14:04;3.45;;;2.30;;
60016;SDS011;45869;52.698;6.210;2023-04-01T17:16:39;2.75;;;2.10;;
60016;SDS011;45869;52.698;6.210;2023-04-01T17:32:25;4.75;;;3.63;;
60016;SDS011;45869;52.698;6.210;2023-04-01T17:35:04;3.95;;;3.53;;
60016;SDS011;45869;52.698;6.210;2023-04-01T17:40:30;4.97;;;3.97;;
60016;SDS011;45869;52.698;6.210;2023-04-01T17:43:18;5.45;;;3.83;;
60016;SDS011;45869;52.698;6.210;2023-04-01T17:45:57;5.75;;;3.92;;
60016;SDS011;45869;52.698;6.210;2023-04-01T17:48:45;5.53;;;4.00;;
60016;SDS011;45869;52.698;6.210;2023-04-01T17:56:59;5.18;;;4.30;;
60016;SDS011;45869;52.698;6.210;2023-04-01T17:59:44;6.70;;;4.68;;
60016;SDS011;45869;52.698;6.210;2023-04-01T18:10:24;5.68;;;4.80;;
60016;SDS011;45869;52.698;6.210;2023-04-01T18:15:31;5.60;;;4.60;;
60016;SDS011;45869;52.698;6.210;2023-04-01T18:18:08;6.15;;;4.60;;
60016;SDS011;45869;52.698;6.210;2023-04-01T18:23:29;7.68;;;4.70;;
60016;SDS011;45869;52.698;6.210;2023-04-01T18:26:04;5.75;;;4.45;;
60016;SDS011;45869;52.698;6.210;2023-04-01T18:31:34;7.40;;;4.90;;
60016;SDS011;45869;52.698;6.210;2023-04-01T18:34:21;7.20;;;4.53;;
60016;SDS011;45869;52.698;6.210;2023-04-01T18:37:12;6.30;;;4.50;;
60016;SDS011;45869;52.698;6.210;2023-04-01T18:39:43;5.43;;;4.47;;
60016;SDS011;45869;52.698;6.210;2023-04-01T18:44:43;5.63;;;4.03;;
60016;SDS011;45869;52.698;6.210;2023-04-01T18:47:25;5.93;;;4.43;;
60016;SDS011;45869;52.698;6.210;2023-04-01T18:49:59;5.15;;;4.35;;
60016;SDS011;45869;52.698;6.210;2023-04-01T18:52:27;6.53;;;4.35;;
60016;SDS011;45869;52.698;6.210;2023-04-01T19:07:40;6.43;;;4.90;;
60016;SDS011;45869;52.698;6.210;2023-04-01T19:10:12;7.10;;;4.88;;
60016;SDS011;45869;52.698;6.210;2023-04-01T19:25:27;6.07;;;4.80;;
60016;SDS011;45869;52.698;6.210;2023-04-01T19:30:49;8.75;;;5.18;;
60016;SDS011;45869;52.698;6.210;2023-04-01T19:46:25;9.40;;;5.80;;
60016;SDS011;45869;52.698;6.210;2023-04-01T19:51:50;9.73;;;6.00;;
60016;SDS011;45869;52.698;6.210;2023-04-01T19:54:24;8.60;;;5.97;;
60016;SDS011;45869;52.698;6.210;2023-04-01T20:04:27;9.52;;;6.45;;
60016;SDS011;45869;52.698;6.210;2023-04-01T20:07:00;9.10;;;6.60;;
60016;SDS011;45869;52.698;6.210;2023-04-01T20:12:24;8.95;;;6.53;;
60016;SDS011;45869;52.698;6.210;2023-04-01T20:14:57;8.75;;;6.13;;
60016;SDS011;45869;52.698;6.210;2023-04-01T20:20:00;9.82;;;6.45;;
60016;SDS011;45869;52.698;6.210;2023-04-01T20:22:37;11.55;;;7.50;;
60016;SDS011;45869;52.698;6.210;2023-04-01T20:27:41;10.73;;;7.10;;
60016;SDS011;45869;52.698;6.210;2023-04-01T20:30:19;9.35;;;6.82;;
60016;SDS011;45869;52.698;6.210;2023-04-01T20:35:31;9.05;;;6.63;;
60016;SDS011;45869;52.698;6.210;2023-04-01T20:51:14;11.13;;;7.25;;
60016;SDS011;45869;52.698;6.210;2023-04-01T20:53:50;12.07;;;6.80;;
60016;SDS011;45869;52.698;6.210;2023-04-01T20:58:52;11.75;;;7.10;;
60016;SDS011;45869;52.698;6.210;2023-04-01T21:01:34;12.48;;;7.47;;
60016;SDS011;45869;52.698;6.210;2023-04-01T21:32:58;12.50;;;7.95;;
60016;SDS011;45869;52.698;6.210;2023-04-01T21:41:10;14.32;;;8.05;;
60016;SDS011;45869;52.698;6.210;2023-04-01T21:59:14;12.15;;;8.25;;
60016;SDS011;45869;52.698;6.210;2023-04-01T22:07:17;12.40;;;7.88;;
60016;SDS011;45869;52.698;6.210;2023-04-01T22:09:52;13.95;;;8.85;;
60016;SDS011;45869;52.698;6.210;2023-04-01T22:15:00;13.18;;;8.00;;
60016;SDS011;45869;52.698;6.210;2023-04-01T22:17:50;15.07;;;8.13;;
60016;SDS011;45869;52.698;6.210;2023-04-01T22:20:35;14.13;;;8.40;;
60016;SDS011;45869;52.698;6.210;2023-04-01T22:25:30;13.48;;;8.52;;
60016;SDS011;45869;52.698;6.210;2023-04-01T22:28:00;12.38;;;7.78;;
60016;SDS011;45869;52.698;6.210;2023-04-01T22:30:32;13.38;;;8.27;;
60016;SDS011;45869;52.698;6.210;2023-04-01T22:33:05;14.57;;;8.52;;
60016;SDS011;45869;52.698;6.210;2023-04-01T22:43:28;13.85;;;8.00;;
60016;SDS011;45869;52.698;6.210;2023-04-01T22:46:03;13.18;;;7.47;;
60016;SDS011;45869;52.698;6.210;2023-04-01T22:49:00;11.80;;;7.90;;
60016;SDS011;45869;52.698;6.210;2023-04-01T22:51:38;11.75;;;7.70;;
60016;SDS011;45869;52.698;6.210;2023-04-01T22:56:52;12.95;;;7.68;;
60016;SDS011;45869;52.698;6.210;2023-04-01T22:59:22;11.70;;;7.80;;
60016;SDS011;45869;52.698;6.210;2023-04-01T23:01:57;14.10;;;8.15;;
60016;SDS011;45869;52.698;6.210;2023-04-01T23:04:27;13.10;;;8.07;;
60016;SDS011;45869;52.698;6.210;2023-04-01T23:07:02;12.38;;;7.82;;
60016;SDS011;45869;52.698;6.210;2023-04-01T23:09:30;12.43;;;7.35;;
60016;SDS011;45869;52.698;6.210;2023-04-01T23:11:57;13.32;;;7.90;;
60016;SDS011;45869;52.698;6.210;2023-04-01T23:24:53;11.63;;;7.68;;
60016;SDS011;45869;52.698;6.210;2023-04-01T23:27:23;13.13;;;8.25;;
60016;SDS011;45869;52.698;6.210;2023-04-01T23:29:52;11.10;;;5.72;;
60016;SDS011;45869;52.698;6.210;2023-04-01T23:32:19;13.15;;;7.43;;
60016;SDS011;45869;52.698;6.210;2023-04-01T23:34:54;12.48;;;7.40;;
60016;SDS011;45869;52.698;6.210;2023-04-01T23:37:21;14.82;;;7.65;;
60016;SDS011;45869;52.698;6.210;2023-04-01T23:39:49;12.95;;;7.50;;
60016;SDS011;45869;52.698;6.210;2023-04-01T23:44:41;13.48;;;8.20;;
60016;SDS011;45869;52.698;6.210;2023-04-01T23:47:11;11.90;;;7.63;;
60016;SDS011;45869;52.698;6.210;2023-04-01T23:49:38;12.55;;;7.72;;
60016;SDS011;45869;52.698;6.210;2023-04-01T23:52:10;13.90;;;5.30;;
60016;SDS011;45869;52.698;6.210;2023-04-01T23:55:21;11.13;;;6.97;;
60016;SDS011;45869;52.698;6.210;2023-04-01T23:57:34;12.27;;;7.05;;
